Time;durP1;ratioP1;P1;durP2;ratioP2;P2;SDS_P1;SDS_P2;PMS_P1;PMS_P2;Temp;Humidity;BMP_temperature;BMP_pressure;BME280_temperature;BME280_humidity;BME280_pressure;Samples;Min_cycle;Max_cycle;Signal;HPM_P1;HPM_P2
2023/08/03 00:00:27;;;;;;;6.20;5.60;;;;;;;;;;5070616;28;20973;-65
2023/08/03 00:02:55;;;;;;;9.70;5.43;;;;;;;;;;5070587;28;20622;-66
2023/08/03 00:05:23;;;;;;;8.80;5.07;;;;;;;;;;5066304;28;20615;-65
2023/08/03 00:07:52;;;;;;;16.37;5.50;;;;;;;;;;5057811;28;20630;-65
2023/08/03 00:10:21;;;;;;;5.37;4.27;;;;;;;;;;5078677;28;20645;-65
2023/08/03 00:12:50;;;;;;;6.80;5.00;;;;;;;;;;5089923;28;20625;-65
2023/08/03 00:15:19;;;;;;;9.10;5.33;;;;;;;;;;5091726;28;20993;-65
2023/08/03 00:17:47;;;;;;;6.63;4.80;;;;;;;;;;5090930;28;20617;-65
2023/08/03 00:20:18;;;;;;;4.90;4.40;;;;;;;;;;5091755;28;20657;-65
2023/08/03 00:22:46;;;;;;;8.90;5.10;;;;;;;;;;5089895;28;20617;-65
2023/08/03 00:25:14;;;;;;;8.80;5.40;;;;;;;;;;5089176;28;20632;-65
2023/08/03 00:27:42;;;;;;;5.20;4.80;;;;;;;;;;5087029;28;20626;-64
2023/08/03 00:30:11;;;;;;;11.10;6.23;;;;;;;;;;5091779;28;21162;-64
2023/08/03 00:32:41;;;;;;;6.93;4.90;;;;;;;;;;5090670;28;21031;-64
2023/08/03 00:35:11;;;;;;;5.83;5.00;;;;;;;;;;5074047;28;20601;-64
2023/08/03 00:37:39;;;;;;;6.03;4.97;;;;;;;;;;5090487;28;20629;-64
2023/08/03 00:40:08;;;;;;;7.77;4.77;;;;;;;;;;5087524;28;20655;-64
2023/08/03 00:42:38;;;;;;;12.40;6.00;;;;;;;;;;5090566;28;21048;-65
2023/08/03 00:45:07;;;;;;;6.80;4.93;;;;;;;;;;5091563;28;21068;-65
2023/08/03 00:47:38;;;;;;;6.60;6.10;;;;;;;;;;5072500;28;20628;-65
2023/08/03 00:50:08;;;;;;;5.97;4.87;;;;;;;;;;5090944;28;20628;-65
2023/08/03 00:52:37;;;;;;;7.33;5.07;;;;;;;;;;5090664;28;20605;-66
2023/08/03 00:55:06;;;;;;;5.13;4.53;;;;;;;;;;5090588;28;21209;-64
2023/08/03 00:57:34;;;;;;;9.93;5.53;;;;;;;;;;5090709;28;20694;-65
2023/08/03 01:00:02;;;;;;;7.67;5.13;;;;;;;;;;5076156;28;20660;-66
2023/08/03 01:02:31;;;;;;;6.50;4.67;;;;;;;;;;5092870;28;20613;-64
2023/08/03 01:04:59;;;;;;;8.60;4.67;;;;;;;;;;5092182;28;21178;-64
2023/08/03 01:07:28;;;;;;;9.30;4.87;;;;;;;;;;5055597;28;20628;-65
2023/08/03 01:09:57;;;;;;;6.20;4.30;;;;;;;;;;5072981;28;20702;-64
2023/08/03 01:12:25;;;;;;;6.77;4.80;;;;;;;;;;5074240;28;20620;-64
2023/08/03 01:14:53;;;;;;;7.10;4.73;;;;;;;;;;5072318;28;20638;-63
2023/08/03 01:17:22;;;;;;;5.20;4.70;;;;;;;;;;5074424;28;20636;-64
2023/08/03 01:19:50;;;;;;;5.30;4.90;;;;;;;;;;5092451;28;20984;-63
2023/08/03 01:22:18;;;;;;;6.90;4.83;;;;;;;;;;5093661;28;21167;-65
2023/08/03 01:24:48;;;;;;;5.50;5.00;;;;;;;;;;5091863;28;20601;-65
2023/08/03 01:27:16;;;;;;;6.70;5.47;;;;;;;;;;5093245;28;20625;-65
2023/08/03 01:29:44;;;;;;;6.57;5.00;;;;;;;;;;5092864;28;20632;-65
2023/08/03 01:32:12;;;;;;;7.37;5.17;;;;;;;;;;5093480;28;20621;-65
2023/08/03 01:34:41;;;;;;;5.33;4.90;;;;;;;;;;5092959;28;20684;-65
2023/08/03 01:37:10;;;;;;;5.97;5.50;;;;;;;;;;5093595;28;20660;-65
2023/08/03 01:39:38;;;;;;;8.07;4.90;;;;;;;;;;5092665;28;20754;-66
2023/08/03 01:42:08;;;;;;;7.17;4.90;;;;;;;;;;5089947;28;20621;-64
2023/08/03 01:44:36;;;;;;;7.30;5.03;;;;;;;;;;5086770;28;20628;-66
2023/08/03 01:47:04;;;;;;;5.63;4.90;;;;;;;;;;5092341;28;20617;-65
2023/08/03 01:49:34;;;;;;;5.43;4.93;;;;;;;;;;5092729;28;20622;-63
2023/08/03 01:52:02;;;;;;;5.67;5.13;;;;;;;;;;5092854;28;20617;-66
2023/08/03 01:54:30;;;;;;;5.47;4.97;;;;;;;;;;5074842;28;20631;-65
2023/08/03 01:56:58;;;;;;;5.10;4.70;;;;;;;;;;5070468;28;20634;-63
2023/08/03 01:59:28;;;;;;;5.87;5.20;;;;;;;;;;5086392;28;20693;-66
2023/08/03 02:01:56;;;;;;;6.83;4.83;;;;;;;;;;5073747;28;20617;-63
2023/08/03 02:04:24;;;;;;;4.30;4.00;;;;;;;;;;5092157;28;20705;-63
2023/08/03 02:06:52;;;;;;;5.47;4.97;;;;;;;;;;5091921;28;20621;-63
2023/08/03 02:09:21;;;;;;;5.47;4.60;;;;;;;;;;5055082;28;20618;-64
2023/08/03 02:11:49;;;;;;;9.17;4.40;;;;;;;;;;5071999;28;21074;-63
2023/08/03 02:14:17;;;;;;;10.37;5.00;;;;;;;;;;5074827;28;21195;-63
2023/08/03 02:16:47;;;;;;;5.53;4.97;;;;;;;;;;5092838;28;20617;-63
2023/08/03 02:19:15;;;;;;;5.50;5.10;;;;;;;;;;5092387;28;20637;-63
2023/08/03 02:21:43;;;;;;;4.60;4.40;;;;;;;;;;5092155;28;20663;-64
2023/08/03 02:24:12;;;;;;;5.53;5.00;;;;;;;;;;5091962;28;21178;-63
2023/08/03 02:26:40;;;;;;;5.77;4.30;;;;;;;;;;5083613;28;20633;-63
2023/08/03 02:29:08;;;;;;;7.33;5.00;;;;;;;;;;5054729;28;20614;-64
2023/08/03 02:31:36;;;;;;;5.07;4.33;;;;;;;;;;5079531;28;20617;-64
2023/08/03 02:34:06;;;;;;;5.97;4.70;;;;;;;;;;5074891;28;20947;-64
2023/08/03 02:36:41;;;;;;;7.80;4.53;;;;;;;;;;5074053;28;20931;-64
2023/08/03 02:39:11;;;;;;;4.53;4.20;;;;;;;;;;5074350;28;20613;-64
2023/08/03 02:41:44;;;;;;;4.33;4.00;;;;;;;;;;5073945;28;21165;-64
2023/08/03 02:44:18;;;;;;;6.10;4.17;;;;;;;;;;5074273;28;20601;-63
2023/08/03 02:46:49;;;;;;;4.17;3.77;;;;;;;;;;5073828;28;20621;-66
2023/08/03 02:49:19;;;;;;;5.87;4.30;;;;;;;;;;5091353;28;20678;-64
2023/08/03 02:51:48;;;;;;;8.83;3.90;;;;;;;;;;5073723;28;20605;-64
2023/08/03 02:54:19;;;;;;;5.47;3.37;;;;;;;;;;5074066;28;20601;-64
2023/08/03 02:56:54;;;;;;;10.60;3.37;;;;;;;;;;5073650;28;20630;-64
2023/08/03 02:59:22;;;;;;;9.43;2.90;;;;;;;;;;5073613;28;21195;-64
2023/08/03 03:01:50;;;;;;;4.17;2.40;;;;;;;;;;5072814;28;20665;-64
2023/08/03 03:04:23;;;;;;;3.07;2.03;;;;;;;;;;5073154;28;20580;-64
2023/08/03 03:06:50;;;;;;;1.90;1.80;;;;;;;;;;5088695;28;20592;-64
2023/08/03 03:09:18;;;;;;;3.73;2.13;;;;;;;;;;5053698;28;20950;-65
2023/08/03 03:11:52;;;;;;;3.50;1.80;;;;;;;;;;5066350;28;20661;-65
2023/08/03 03:14:21;;;;;;;4.70;1.63;;;;;;;;;;5070625;28;20605;-65
2023/08/03 03:16:49;;;;;;;2.83;1.67;;;;;;;;;;5090844;28;20624;-65
2023/08/03 03:19:20;;;;;;;2.20;1.50;;;;;;;;;;5073097;28;20616;-65
2023/08/03 03:21:51;;;;;;;3.53;1.90;;;;;;;;;;5073482;28;20653;-65
2023/08/03 03:24:19;;;;;;;2.50;1.90;;;;;;;;;;5073022;28;20614;-66
2023/08/03 03:26:48;;;;;;;6.97;1.70;;;;;;;;;;5091892;28;20608;-65
2023/08/03 03:29:16;;;;;;;1.60;1.50;;;;;;;;;;5091373;28;20967;-65
2023/08/03 03:31:44;;;;;;;2.40;1.30;;;;;;;;;;5091822;28;20609;-66
2023/08/03 03:34:13;;;;;;;3.13;1.20;;;;;;;;;;5091555;28;20960;-65
2023/08/03 03:36:41;;;;;;;6.37;1.40;;;;;;;;;;5073762;28;20703;-65
2023/08/03 03:39:11;;;;;;;2.13;1.40;;;;;;;;;;5091326;28;20605;-65
2023/08/03 03:41:39;;;;;;;3.33;1.30;;;;;;;;;;5091465;28;20672;-65
2023/08/03 03:44:07;;;;;;;6.30;1.73;;;;;;;;;;5088489;28;21197;-65
2023/08/03 03:46:35;;;;;;;4.30;0.90;;;;;;;;;;5090911;28;20637;-65
2023/08/03 03:49:04;;;;;;;7.00;1.27;;;;;;;;;;5072912;28;21220;-65
2023/08/03 03:51:34;;;;;;;4.83;0.87;;;;;;;;;;5073269;28;20577;-65
2023/08/03 03:54:02;;;;;;;3.33;1.30;;;;;;;;;;5073257;28;20631;-65
2023/08/03 03:56:32;;;;;;;5.57;1.20;;;;;;;;;;5090364;28;21028;-65
2023/08/03 03:59:01;;;;;;;2.47;1.40;;;;;;;;;;5073659;28;20718;-65
2023/08/03 04:01:32;;;;;;;2.80;1.20;;;;;;;;;;5090252;28;20660;-65
2023/08/03 04:04:00;;;;;;;4.33;1.33;;;;;;;;;;5072211;28;20613;-65
2023/08/03 04:06:29;;;;;;;3.73;1.40;;;;;;;;;;5072053;28;20610;-65
2023/08/03 04:08:57;;;;;;;4.30;1.47;;;;;;;;;;5091048;28;20595;-66
2023/08/03 04:11:25;;;;;;;2.50;1.00;;;;;;;;;;5072180;28;20679;-66
2023/08/03 04:13:55;;;;;;;4.60;1.07;;;;;;;;;;5089685;28;20621;-65
2023/08/03 04:16:26;;;;;;;5.90;1.33;;;;;;;;;;5042390;28;20606;-65
2023/08/03 04:18:54;;;;;;;4.73;1.40;;;;;;;;;;5087465;28;20621;-66
2023/08/03 04:21:22;;;;;;;5.73;1.40;;;;;;;;;;5091212;28;20658;-65
2023/08/03 04:23:51;;;;;;;6.00;1.57;;;;;;;;;;5072956;28;20640;-65
2023/08/03 04:26:19;;;;;;;2.60;1.20;;;;;;;;;;5090977;28;20627;-65
2023/08/03 04:28:47;;;;;;;4.93;1.33;;;;;;;;;;5089794;28;20621;-65
2023/08/03 04:31:17;;;;;;;3.10;0.90;;;;;;;;;;5060582;28;20621;-65
2023/08/03 04:33:50;;;;;;;3.23;1.30;;;;;;;;;;5070476;28;20571;-65
2023/08/03 04:36:18;;;;;;;4.07;1.40;;;;;;;;;;5077576;28;20617;-65
2023/08/03 04:38:46;;;;;;;5.03;2.17;;;;;;;;;;5094155;28;20617;-65
2023/08/03 04:41:16;;;;;;;4.83;1.20;;;;;;;;;;5077439;28;20631;-65
2023/08/03 04:43:47;;;;;;;2.10;1.10;;;;;;;;;;5075986;28;20582;-65
2023/08/03 04:46:16;;;;;;;2.40;1.40;;;;;;;;;;5060547;28;20638;-65
2023/08/03 04:48:45;;;;;;;5.40;1.67;;;;;;;;;;5075909;28;21093;-66
2023/08/03 04:51:13;;;;;;;13.57;1.83;;;;;;;;;;5077021;28;20655;-65
2023/08/03 04:53:42;;;;;;;4.27;1.40;;;;;;;;;;5076478;28;20615;-65
2023/08/03 04:56:10;;;;;;;3.17;1.17;;;;;;;;;;5067668;28;20593;-65
2023/08/03 04:58:39;;;;;;;3.33;1.33;;;;;;;;;;5067009;28;21165;-66
2023/08/03 05:01:07;;;;;;;3.37;1.00;;;;;;;;;;5094359;28;20673;-65
2023/08/03 05:03:36;;;;;;;2.33;0.87;;;;;;;;;;5074542;28;21179;-66
2023/08/03 05:06:06;;;;;;;3.80;1.23;;;;;;;;;;5079361;28;20598;-65
2023/08/03 05:08:34;;;;;;;4.70;1.40;;;;;;;;;;5075945;28;21203;-65
2023/08/03 05:11:02;;;;;;;4.07;2.40;;;;;;;;;;5086160;28;20672;-65
2023/08/03 05:13:35;;;;;;;3.43;1.30;;;;;;;;;;5059843;28;20934;-66
2023/08/03 05:16:04;;;;;;;4.63;1.57;;;;;;;;;;5074531;28;20633;-65
2023/08/03 05:18:32;;;;;;;2.63;1.30;;;;;;;;;;5076332;28;20632;-65
2023/08/03 05:21:02;;;;;;;3.83;1.50;;;;;;;;;;5080836;28;20664;-65
2023/08/03 05:23:30;;;;;;;3.97;1.30;;;;;;;;;;5093785;28;20683;-65
2023/08/03 05:25:59;;;;;;;3.73;1.47;;;;;;;;;;5092890;28;20618;-65
2023/08/03 05:28:27;;;;;;;2.23;1.20;;;;;;;;;;5093042;28;20603;-66
2023/08/03 05:30:55;;;;;;;3.60;1.20;;;;;;;;;;5093879;28;20625;-66
2023/08/03 05:33:23;;;;;;;5.40;1.70;;;;;;;;;;5091522;28;20963;-65
2023/08/03 05:35:52;;;;;;;2.80;1.30;;;;;;;;;;5093984;28;20587;-65
2023/08/03 05:38:21;;;;;;;10.90;1.80;;;;;;;;;;5093698;28;20631;-65
2023/08/03 05:40:49;;;;;;;4.73;2.13;;;;;;;;;;5092964;28;20627;-65
2023/08/03 05:43:17;;;;;;;2.83;1.53;;;;;;;;;;5087517;28;20625;-66
2023/08/03 05:45:47;;;;;;;2.40;1.50;;;;;;;;;;5089160;28;20610;-65
2023/08/03 05:48:16;;;;;;;5.00;1.73;;;;;;;;;;5075760;28;20599;-65
2023/08/03 05:50:45;;;;;;;3.43;1.70;;;;;;;;;;5092251;28;20621;-65
2023/08/03 05:53:14;;;;;;;4.50;1.70;;;;;;;;;;5076113;28;20604;-65
2023/08/03 05:55:44;;;;;;;4.50;1.50;;;;;;;;;;5087706;28;20667;-65
2023/08/03 05:58:13;;;;;;;2.20;1.60;;;;;;;;;;5093509;28;20622;-65
2023/08/03 06:00:41;;;;;;;16.03;3.20;;;;;;;;;;5091870;28;21044;-65
2023/08/03 06:03:12;;;;;;;2.77;1.50;;;;;;;;;;5092318;28;20627;-65
2023/08/03 06:05:44;;;;;;;2.27;1.40;;;;;;;;;;5091427;28;20578;-66
2023/08/03 06:08:13;;;;;;;10.80;1.90;;;;;;;;;;5093358;28;20636;-65
2023/08/03 06:10:42;;;;;;;3.80;1.50;;;;;;;;;;5091811;28;20652;-65
2023/08/03 06:13:12;;;;;;;2.13;1.50;;;;;;;;;;5093111;28;20601;-65
2023/08/03 06:15:41;;;;;;;2.43;1.50;;;;;;;;;;5091132;28;20666;-65
2023/08/03 06:18:10;;;;;;;3.23;1.80;;;;;;;;;;5091054;28;21006;-65
2023/08/03 06:20:41;;;;;;;3.47;1.80;;;;;;;;;;5091511;28;20614;-66
2023/08/03 06:23:13;;;;;;;5.27;1.93;;;;;;;;;;5088311;28;20646;-67
2023/08/03 06:25:41;;;;;;;3.23;1.53;;;;;;;;;;5083272;28;20616;-68
2023/08/03 06:28:12;;;;;;;3.53;2.20;;;;;;;;;;5096753;28;20608;-68
2023/08/03 06:30:40;;;;;;;2.50;1.30;;;;;;;;;;5092546;28;20560;-68
2023/08/03 06:33:10;;;;;;;1.50;1.40;;;;;;;;;;5089585;28;20630;-65
2023/08/03 06:35:40;;;;;;;4.60;1.30;;;;;;;;;;5092769;28;20613;-69
2023/08/03 06:38:09;;;;;;;4.20;1.40;;;;;;;;;;5092432;28;20637;-75
2023/08/03 06:40:39;;;;;;;4.10;1.40;;;;;;;;;;5092929;28;20979;-66
2023/08/03 06:43:08;;;;;;;4.40;1.50;;;;;;;;;;5081981;28;21188;-67
2023/08/03 06:45:37;;;;;;;3.00;1.63;;;;;;;;;;5082377;28;20633;-67
2023/08/03 06:48:06;;;;;;;2.77;1.00;;;;;;;;;;5092488;28;20673;-66
2023/08/03 06:50:34;;;;;;;7.67;2.00;;;;;;;;;;5092286;28;20621;-67
2023/08/03 06:53:03;;;;;;;2.70;0.97;;;;;;;;;;5093230;28;21056;-66
2023/08/03 06:55:32;;;;;;;6.30;1.63;;;;;;;;;;5093116;28;20613;-66
2023/08/03 06:58:00;;;;;;;2.53;1.17;;;;;;;;;;5092653;28;20625;-67
2023/08/03 07:00:28;;;;;;;1.67;1.40;;;;;;;;;;5089966;28;20674;-67
2023/08/03 07:02:58;;;;;;;2.03;1.73;;;;;;;;;;5090469;28;20661;-67
2023/08/03 07:05:26;;;;;;;2.13;1.77;;;;;;;;;;5092514;28;20625;-65
2023/08/03 07:07:54;;;;;;;3.00;1.60;;;;;;;;;;5091797;28;20991;-65
2023/08/03 07:10:23;;;;;;;4.30;1.67;;;;;;;;;;5086359;28;20677;-66
2023/08/03 07:12:51;;;;;;;3.03;1.47;;;;;;;;;;5074908;28;20694;-65
2023/08/03 07:15:20;;;;;;;3.93;1.67;;;;;;;;;;5089101;28;20658;-65
2023/08/03 07:17:48;;;;;;;2.20;1.50;;;;;;;;;;5092796;28;20676;-64
2023/08/03 07:20:18;;;;;;;3.40;1.27;;;;;;;;;;5092006;28;20621;-65
2023/08/03 07:22:47;;;;;;;5.63;1.47;;;;;;;;;;5092038;28;20675;-65
2023/08/03 07:25:16;;;;;;;2.40;1.50;;;;;;;;;;5075627;28;20633;-65
2023/08/03 07:27:44;;;;;;;1.43;1.23;;;;;;;;;;5090701;28;20726;-65
2023/08/03 07:30:12;;;;;;;3.10;1.40;;;;;;;;;;5091011;28;20625;-64
2023/08/03 07:32:41;;;;;;;5.90;1.70;;;;;;;;;;5091199;28;20956;-65
2023/08/03 07:35:09;;;;;;;5.17;1.53;;;;;;;;;;5093228;28;21257;-66
2023/08/03 07:37:38;;;;;;;3.93;1.70;;;;;;;;;;5075505;28;20689;-65
2023/08/03 07:40:08;;;;;;;3.77;1.57;;;;;;;;;;5085015;28;21408;-65
2023/08/03 07:42:36;;;;;;;4.23;1.63;;;;;;;;;;5092750;28;20653;-64
2023/08/03 07:45:04;;;;;;;6.80;1.90;;;;;;;;;;5090256;28;20629;-64
2023/08/03 07:47:33;;;;;;;3.00;1.73;;;;;;;;;;5057761;28;20625;-65
2023/08/03 07:50:03;;;;;;;1.67;1.20;;;;;;;;;;5085980;28;20644;-65
2023/08/03 07:52:31;;;;;;;5.77;1.80;;;;;;;;;;5073522;28;20644;-65
2023/08/03 07:55:01;;;;;;;2.30;1.97;;;;;;;;;;5056046;28;20614;-66
2023/08/03 07:57:29;;;;;;;3.50;1.40;;;;;;;;;;5073211;28;20697;-65
2023/08/03 07:59:57;;;;;;;7.20;1.40;;;;;;;;;;5074037;28;20678;-64
2023/08/03 08:02:26;;;;;;;5.27;1.73;;;;;;;;;;5081992;28;21198;-64
2023/08/03 08:04:54;;;;;;;7.53;1.80;;;;;;;;;;5089036;28;21065;-66
2023/08/03 08:07:22;;;;;;;3.03;1.50;;;;;;;;;;5077902;28;20654;-66
2023/08/03 08:09:54;;;;;;;3.33;1.30;;;;;;;;;;5089566;28;20669;-66
2023/08/03 08:12:24;;;;;;;4.27;1.73;;;;;;;;;;5077110;28;20923;-66
2023/08/03 08:14:52;;;;;;;5.50;1.50;;;;;;;;;;5077275;28;20606;-66
2023/08/03 08:17:20;;;;;;;3.43;1.73;;;;;;;;;;5077089;28;20606;-66
2023/08/03 08:19:49;;;;;;;2.63;1.27;;;;;;;;;;5097310;28;20621;-65
2023/08/03 08:22:17;;;;;;;4.43;1.73;;;;;;;;;;5089106;28;20629;-66
2023/08/03 08:24:45;;;;;;;3.37;1.17;;;;;;;;;;5080462;28;20721;-65
2023/08/03 08:27:14;;;;;;;5.40;1.50;;;;;;;;;;5077015;28;21018;-64
2023/08/03 08:29:45;;;;;;;4.20;1.60;;;;;;;;;;5077614;28;20585;-65
2023/08/03 08:32:13;;;;;;;3.47;1.67;;;;;;;;;;5083645;28;20663;-64
2023/08/03 08:34:41;;;;;;;7.23;1.60;;;;;;;;;;5096165;28;20598;-64
2023/08/03 08:37:10;;;;;;;2.53;2.30;;;;;;;;;;5078987;28;20615;-66
2023/08/03 08:39:38;;;;;;;8.40;1.73;;;;;;;;;;5086134;28;20618;-66
2023/08/03 08:42:13;;;;;;;4.23;1.30;;;;;;;;;;5062866;28;20620;-66
2023/08/03 08:44:41;;;;;;;4.77;1.20;;;;;;;;;;5097880;28;20650;-65
2023/08/03 08:47:11;;;;;;;3.93;1.30;;;;;;;;;;5099629;28;20680;-65
2023/08/03 08:49:39;;;;;;;3.10;1.40;;;;;;;;;;5093977;28;20767;-64
2023/08/03 08:52:08;;;;;;;4.17;1.20;;;;;;;;;;5082136;28;20685;-64
2023/08/03 08:54:37;;;;;;;6.40;1.60;;;;;;;;;;5080240;28;20681;-65
2023/08/03 08:57:05;;;;;;;6.30;1.20;;;;;;;;;;5077137;28;20683;-65
2023/08/03 08:59:34;;;;;;;5.20;1.53;;;;;;;;;;5078416;28;20712;-64
2023/08/03 09:02:02;;;;;;;3.63;1.50;;;;;;;;;;5086026;28;20729;-64
2023/08/03 09:04:33;;;;;;;2.00;1.20;;;;;;;;;;5079451;28;21337;-65
2023/08/03 09:07:02;;;;;;;5.70;1.73;;;;;;;;;;5091169;28;20671;-65
2023/08/03 09:09:35;;;;;;;5.60;1.73;;;;;;;;;;5083137;28;20696;-68
2023/08/03 09:12:03;;;;;;;1.90;1.27;;;;;;;;;;5079630;28;20726;-66
2023/08/03 09:14:32;;;;;;;6.20;1.70;;;;;;;;;;5088999;28;20705;-64
2023/08/03 09:17:15;;;;;;;2.93;1.33;;;;;;;;;;5083893;28;20696;-65
2023/08/03 09:19:45;;;;;;;1.70;0.97;;;;;;;;;;5076690;28;21025;-67
2023/08/03 09:22:13;;;;;;;2.73;1.30;;;;;;;;;;5076425;28;20743;-67
2023/08/03 09:24:42;;;;;;;4.10;1.60;;;;;;;;;;5087336;28;20670;-67
2023/08/03 09:27:16;;;;;;;3.60;1.20;;;;;;;;;;5094982;28;20658;-67
2023/08/03 09:29:45;;;;;;;2.67;1.30;;;;;;;;;;5094790;28;20595;-67
2023/08/03 09:32:13;;;;;;;4.00;1.20;;;;;;;;;;5096414;28;20615;-66
2023/08/03 09:34:42;;;;;;;3.60;1.37;;;;;;;;;;5097102;28;20902;-67
2023/08/03 09:37:14;;;;;;;2.90;1.40;;;;;;;;;;5093872;28;20617;-64
2023/08/03 09:39:54;;;;;;;1.30;1.20;;;;;;;;;;5079121;28;20605;-66
2023/08/03 09:42:23;;;;;;;5.68;1.40;;;;;;;;;;5098309;28;20824;-66
2023/08/03 09:44:53;;;;;;;2.97;1.23;;;;;;;;;;5098284;28;20271;-67
2023/08/03 09:47:21;;;;;;;3.70;1.10;;;;;;;;;;5099997;28;21097;-66
2023/08/03 09:49:52;;;;;;;7.07;1.50;;;;;;;;;;5099657;28;20697;-66
2023/08/03 09:52:24;;;;;;;5.17;1.53;;;;;;;;;;5082276;28;20738;-66
2023/08/03 09:54:56;;;;;;;3.17;1.50;;;;;;;;;;5097390;28;20705;-67
2023/08/03 09:57:24;;;;;;;2.23;1.33;;;;;;;;;;5100268;28;20709;-64
2023/08/03 09:59:54;;;;;;;2.53;1.17;;;;;;;;;;5098805;28;20700;-64
2023/08/03 10:02:24;;;;;;;2.23;1.70;;;;;;;;;;5099287;28;21036;-66
2023/08/03 10:04:53;;;;;;;6.67;1.80;;;;;;;;;;5081262;28;20732;-66
2023/08/03 10:07:24;;;;;;;2.80;1.40;;;;;;;;;;5099239;28;20708;-67
2023/08/03 10:09:55;;;;;;;2.47;0.90;;;;;;;;;;5099485;28;21266;-66
2023/08/03 10:12:23;;;;;;;3.20;1.83;;;;;;;;;;5100582;28;20577;-66
2023/08/03 10:14:53;;;;;;;3.63;1.40;;;;;;;;;;5079956;28;20724;-67
2023/08/03 10:17:22;;;;;;;2.53;0.87;;;;;;;;;;5097735;28;20716;-66
2023/08/03 10:19:51;;;;;;;2.13;1.13;;;;;;;;;;5100057;28;20707;-66
2023/08/03 10:22:19;;;;;;;2.17;0.90;;;;;;;;;;5098720;28;20704;-66
2023/08/03 10:25:02;;;;;;;5.30;1.33;;;;;;;;;;5097295;28;20744;-66
2023/08/03 10:27:32;;;;;;;2.60;1.07;;;;;;;;;;5093550;28;20732;-66
2023/08/03 10:30:00;;;;;;;1.93;1.00;;;;;;;;;;5091948;28;20716;-66
2023/08/03 10:32:29;;;;;;;2.00;1.20;;;;;;;;;;5091088;28;20737;-66
2023/08/03 10:35:17;;;;;;;2.00;1.37;;;;;;;;;;5096960;28;21182;-67
2023/08/03 10:37:47;;;;;;;3.80;1.20;;;;;;;;;;5091377;28;20736;-65
2023/08/03 10:40:23;;;;;;;3.30;1.27;;;;;;;;;;5097914;28;21106;-66
2023/08/03 10:43:08;;;;;;;2.77;1.40;;;;;;;;;;5093272;28;20652;-66
2023/08/03 10:45:37;;;;;;;2.80;1.17;;;;;;;;;;5097338;28;21054;-66
2023/08/03 10:48:29;;;;;;;2.83;1.00;;;;;;;;;;5097818;28;20759;-66
2023/08/03 10:51:01;;;;;;;2.80;1.10;;;;;;;;;;5097193;28;20576;-66
2023/08/03 10:53:30;;;;;;;7.37;1.10;;;;;;;;;;5097326;28;20604;-65
2023/08/03 10:56:07;;;;;;;1.77;1.20;;;;;;;;;;5097489;28;20710;-67
2023/08/03 10:58:48;;;;;;;5.53;1.10;;;;;;;;;;5098580;28;20754;-66
2023/08/03 11:01:22;;;;;;;3.80;1.23;;;;;;;;;;5091002;28;20609;-66
2023/08/03 11:03:50;;;;;;;2.90;1.00;;;;;;;;;;5092402;28;21033;-66
2023/08/03 11:06:19;;;;;;;2.53;1.17;;;;;;;;;;5093486;28;21313;-66
2023/08/03 11:08:47;;;;;;;2.27;1.60;;;;;;;;;;5092821;28;20683;-67
2023/08/03 11:11:21;;;;;;;3.07;1.30;;;;;;;;;;5093012;28;20749;-66
2023/08/03 11:13:52;;;;;;;0.97;0.90;;;;;;;;;;5096541;28;20683;-66
2023/08/03 11:16:23;;;;;;;2.13;1.30;;;;;;;;;;5076687;28;21176;-65
2023/08/03 11:18:51;;;;;;;1.40;1.30;;;;;;;;;;5097826;28;20676;-65
2023/08/03 11:21:19;;;;;;;3.13;1.50;;;;;;;;;;5107267;28;20656;-64
2023/08/03 11:23:48;;;;;;;2.53;1.77;;;;;;;;;;5109457;28;20685;-65
2023/08/03 11:26:18;;;;;;;1.80;1.70;;;;;;;;;;5105800;28;20645;-65
2023/08/03 11:28:46;;;;;;;1.93;1.60;;;;;;;;;;5109158;28;20649;-64
2023/08/03 11:31:20;;;;;;;4.20;1.30;;;;;;;;;;5105949;28;20631;-65
2023/08/03 11:33:51;;;;;;;1.73;1.50;;;;;;;;;;5109280;28;20625;-64
2023/08/03 11:36:20;;;;;;;2.67;2.00;;;;;;;;;;5109126;28;20655;-64
2023/08/03 11:38:48;;;;;;;5.20;2.80;;;;;;;;;;5107566;28;20616;-65
2023/08/03 11:41:18;;;;;;;3.90;3.60;;;;;;;;;;5108344;28;20625;-65
2023/08/03 11:43:47;;;;;;;3.50;3.40;;;;;;;;;;5107910;28;20616;-64
2023/08/03 11:46:15;;;;;;;3.53;3.43;;;;;;;;;;5106933;28;20661;-67
2023/08/03 11:48:45;;;;;;;4.00;3.80;;;;;;;;;;5107481;28;20641;-64
2023/08/03 11:51:13;;;;;;;4.10;3.90;;;;;;;;;;5107951;28;20660;-65
2023/08/03 11:53:42;;;;;;;4.80;4.50;;;;;;;;;;5090255;28;20653;-64
2023/08/03 11:56:11;;;;;;;4.00;3.70;;;;;;;;;;5110094;28;20638;-64
2023/08/03 11:58:40;;;;;;;3.97;3.77;;;;;;;;;;5107875;28;20644;-64
2023/08/03 12:01:08;;;;;;;4.10;3.80;;;;;;;;;;5108738;28;20617;-65
2023/08/03 12:03:37;;;;;;;4.00;3.70;;;;;;;;;;5106022;28;20610;-64
2023/08/03 12:06:08;;;;;;;4.20;4.00;;;;;;;;;;5107082;28;20705;-67
2023/08/03 12:08:42;;;;;;;5.40;5.00;;;;;;;;;;5105196;28;20673;-66
2023/08/03 12:11:10;;;;;;;5.83;5.63;;;;;;;;;;5104180;28;20716;-64
2023/08/03 12:13:38;;;;;;;5.80;5.50;;;;;;;;;;5100180;28;20664;-66
2023/08/03 12:16:06;;;;;;;6.13;5.80;;;;;;;;;;5108088;28;20641;-65
2023/08/03 12:18:35;;;;;;;5.97;5.67;;;;;;;;;;5107268;28;20658;-67
2023/08/03 12:21:03;;;;;;;7.20;6.80;;;;;;;;;;5108337;28;20633;-64
2023/08/03 12:23:34;;;;;;;6.90;6.60;;;;;;;;;;5106647;28;20618;-66
2023/08/03 12:26:02;;;;;;;6.63;6.37;;;;;;;;;;5107493;28;21360;-64
2023/08/03 12:28:30;;;;;;;6.30;6.10;;;;;;;;;;5105785;28;21363;-65
2023/08/03 12:30:58;;;;;;;6.40;6.10;;;;;;;;;;5107089;28;20641;-65
2023/08/03 12:33:26;;;;;;;7.10;6.70;;;;;;;;;;5107782;28;20641;-65
2023/08/03 12:35:55;;;;;;;7.13;6.73;;;;;;;;;;5106882;28;20698;-66
2023/08/03 12:38:23;;;;;;;7.50;7.20;;;;;;;;;;5106013;28;20656;-64
2023/08/03 12:40:53;;;;;;;7.70;7.10;;;;;;;;;;5111081;28;20706;-63
2023/08/03 12:43:21;;;;;;;7.03;6.50;;;;;;;;;;5109562;28;20636;-65
2023/08/03 12:45:49;;;;;;;7.37;6.80;;;;;;;;;;5108182;28;20777;-65
2023/08/03 12:48:17;;;;;;;6.70;6.50;;;;;;;;;;5109456;28;20629;-65
2023/08/03 12:50:46;;;;;;;6.90;6.60;;;;;;;;;;5109372;28;20657;-64
2023/08/03 12:53:14;;;;;;;6.80;6.40;;;;;;;;;;5105984;28;20637;-65
2023/08/03 12:55:42;;;;;;;6.60;6.30;;;;;;;;;;5109266;28;20636;-65
2023/08/03 12:58:12;;;;;;;6.60;6.30;;;;;;;;;;5107465;28;20725;-66
2023/08/03 13:00:40;;;;;;;6.83;6.60;;;;;;;;;;5104012;28;20712;-67
2023/08/03 13:03:08;;;;;;;7.87;7.40;;;;;;;;;;5088488;28;21237;-66
2023/08/03 13:05:36;;;;;;;7.60;7.20;;;;;;;;;;5101645;28;20752;-69
2023/08/03 13:08:04;;;;;;;6.90;6.47;;;;;;;;;;5101752;28;20712;-65
2023/08/03 13:10:33;;;;;;;7.57;6.80;;;;;;;;;;5087163;28;20767;-66
2023/08/03 13:13:01;;;;;;;8.37;7.50;;;;;;;;;;5093765;28;20718;-65
2023/08/03 13:15:30;;;;;;;7.63;7.23;;;;;;;;;;5093655;28;20657;-66
2023/08/03 13:17:59;;;;;;;6.90;6.70;;;;;;;;;;5106494;28;20712;-65
2023/08/03 13:20:27;;;;;;;7.17;6.90;;;;;;;;;;5107653;28;20724;-67
2023/08/03 13:22:56;;;;;;;7.73;7.23;;;;;;;;;;5106819;28;20747;-67
2023/08/03 13:25:25;;;;;;;7.60;7.30;;;;;;;;;;5089679;28;20724;-66
2023/08/03 13:27:54;;;;;;;7.80;7.37;;;;;;;;;;5105938;28;21295;-65
2023/08/03 13:30:22;;;;;;;7.77;7.43;;;;;;;;;;5085715;28;20613;-66
2023/08/03 13:32:51;;;;;;;8.50;8.00;;;;;;;;;;5105811;28;20701;-64
2023/08/03 13:35:19;;;;;;;8.33;7.93;;;;;;;;;;5105093;28;20693;-65
2023/08/03 13:37:48;;;;;;;8.10;7.80;;;;;;;;;;5107068;28;20676;-65
2023/08/03 13:40:16;;;;;;;8.20;7.80;;;;;;;;;;5107641;28;20657;-67
2023/08/03 13:42:44;;;;;;;9.80;9.30;;;;;;;;;;5106830;28;20747;-65
2023/08/03 13:45:29;;;;;;;8.30;7.80;;;;;;;;;;5106874;28;21089;-65
2023/08/03 13:47:59;;;;;;;8.37;7.87;;;;;;;;;;5103918;28;20712;-65
2023/08/03 13:50:27;;;;;;;8.90;8.57;;;;;;;;;;5085864;28;20724;-66
2023/08/03 13:52:55;;;;;;;8.33;7.93;;;;;;;;;;5089613;28;20727;-70
2023/08/03 13:55:24;;;;;;;8.67;8.37;;;;;;;;;;5088478;28;20712;-64
2023/08/03 13:57:52;;;;;;;9.37;8.87;;;;;;;;;;5106190;28;20701;-65
2023/08/03 14:00:20;;;;;;;9.20;8.60;;;;;;;;;;5101263;28;20681;-66
2023/08/03 14:02:48;;;;;;;9.13;8.73;;;;;;;;;;5087464;28;20692;-67
2023/08/03 14:05:18;;;;;;;10.00;9.60;;;;;;;;;;5087765;28;20716;-66
2023/08/03 14:07:46;;;;;;;10.60;9.73;;;;;;;;;;5103153;28;20654;-65
2023/08/03 14:10:14;;;;;;;9.50;9.00;;;;;;;;;;5098234;28;21395;-67
2023/08/03 14:12:43;;;;;;;9.47;8.97;;;;;;;;;;5086258;28;20694;-66
2023/08/03 14:15:12;;;;;;;10.10;9.70;;;;;;;;;;5087027;28;20626;-65
2023/08/03 14:17:40;;;;;;;9.93;9.33;;;;;;;;;;5069738;28;20708;-65
2023/08/03 14:20:09;;;;;;;9.97;9.47;;;;;;;;;;5085998;28;20646;-65
2023/08/03 14:22:38;;;;;;;9.57;8.97;;;;;;;;;;5107106;28;20705;-66
2023/08/03 14:25:15;;;;;;;8.43;8.13;;;;;;;;;;5073296;28;20720;-64
2023/08/03 14:27:44;;;;;;;8.03;7.73;;;;;;;;;;5084402;28;20714;-66
2023/08/03 14:30:15;;;;;;;8.30;7.87;;;;;;;;;;5103586;28;20692;-66
2023/08/03 14:32:43;;;;;;;8.43;8.03;;;;;;;;;;5103483;28;21178;-65
2023/08/03 14:35:11;;;;;;;8.07;7.67;;;;;;;;;;5107158;28;20652;-63
2023/08/03 14:37:41;;;;;;;7.73;7.53;;;;;;;;;;5101120;28;20645;-66
2023/08/03 14:40:09;;;;;;;8.30;7.93;;;;;;;;;;5098480;28;20683;-65
2023/08/03 14:42:37;;;;;;;8.07;7.77;;;;;;;;;;5106018;28;20700;-64
2023/08/03 14:45:06;;;;;;;8.90;8.50;;;;;;;;;;5104425;28;20649;-66
2023/08/03 14:47:37;;;;;;;9.23;8.83;;;;;;;;;;5101081;28;20625;-64
2023/08/03 14:50:06;;;;;;;9.40;8.90;;;;;;;;;;5106280;28;20656;-64
2023/08/03 14:52:34;;;;;;;9.53;9.20;;;;;;;;;;5080195;28;20697;-64
2023/08/03 14:55:06;;;;;;;10.60;9.90;;;;;;;;;;5087287;28;20641;-65